Time;durP1;ratioP1;P1;durP2;ratioP2;P2;SDS_P1;SDS_P2;PMS_P1;PMS_P2;Temp;Humidity;BMP_temperature;BMP_pressure;BME280_temperature;BME280_humidity;BME280_pressure;Samples;Min_cycle;Max_cycle;Signal;HPM_P1;HPM_P2
2022/11/21 00:00:19;;;;;;;23.00;9.30;;;;;;;0.12;74.74;100046.19;5026510;28;20497;-43
2022/11/21 00:02:45;;;;;;;22.02;9.07;;;;;;;0.17;74.29;100042.00;5021484;28;20128;-42
2022/11/21 00:05:11;;;;;;;23.63;9.77;;;;;;;0.12;74.49;100043.63;5028995;28;20132;-41
2022/11/21 00:07:36;;;;;;;24.02;9.80;;;;;;;0.12;74.27;100058.97;5028886;28;20087;-42
2022/11/21 00:10:03;;;;;;;24.35;9.05;;;;;;;-0.09;74.40;100034.84;5030542;28;20520;-45
2022/11/21 00:12:28;;;;;;;22.13;8.98;;;;;;;0.11;74.63;100064.91;5027895;28;20041;-42
2022/11/21 00:14:54;;;;;;;21.92;9.70;;;;;;;0.15;74.38;100059.91;5029444;28;20531;-42
2022/11/21 00:17:20;;;;;;;21.80;9.13;;;;;;;0.16;74.61;100063.31;5029625;28;20037;-43
2022/11/21 00:19:46;;;;;;;26.70;9.80;;;;;;;0.11;74.86;100068.34;5027749;28;20045;-42
2022/11/21 00:22:12;;;;;;;27.40;10.48;;;;;;;0.12;74.57;100058.97;5012468;28;20064;-43
2022/11/21 00:24:38;;;;;;;24.27;9.60;;;;;;;0.16;74.75;100045.41;5030096;28;20041;-42
2022/11/21 00:27:04;;;;;;;23.27;9.07;;;;;;;0.17;74.86;100039.44;5028254;28;20120;-42
2022/11/21 00:29:30;;;;;;;23.45;9.27;;;;;;;0.00;74.91;100016.25;5012638;28;20044;-42
2022/11/21 00:31:56;;;;;;;28.60;11.00;;;;;;;-0.01;74.52;100012.81;5034694;28;20063;-42
2022/11/21 00:34:22;;;;;;;24.55;9.40;;;;;;;0.26;74.58;100057.47;5044160;28;20045;-42
2022/11/21 00:36:48;;;;;;;22.27;9.77;;;;;;;0.09;74.54;100035.94;5045893;28;20052;-43
2022/11/21 00:39:14;;;;;;;22.95;8.65;;;;;;;0.16;74.56;100053.91;5029211;28;20037;-40
2022/11/21 00:41:40;;;;;;;22.27;9.65;;;;;;;0.13;74.46;100041.09;5008201;28;20038;-42
2022/11/21 00:44:06;;;;;;;23.45;9.00;;;;;;;-0.02;74.89;100013.66;5023938;28;20469;-41
2022/11/21 00:46:32;;;;;;;22.48;9.57;;;;;;;0.04;74.97;100024.78;5026580;28;20547;-42
2022/11/21 00:48:58;;;;;;;26.60;10.18;;;;;;;0.12;74.84;100031.72;5026589;28;20061;-41
2022/11/21 00:51:24;;;;;;;19.40;8.80;;;;;;;0.12;74.61;100029.16;5026671;28;20037;-44
2022/11/21 00:53:50;;;;;;;23.63;8.65;;;;;;;0.10;74.78;100018.06;5010285;28;20045;-42
2022/11/21 00:56:16;;;;;;;23.33;9.50;;;;;;;0.10;74.52;100022.31;5009925;28;20042;-46
2022/11/21 00:58:42;;;;;;;19.52;8.70;;;;;;;0.09;74.85;100021.47;5011819;28;20524;-48
2022/11/21 01:01:13;;;;;;;23.67;9.07;;;;;;;0.09;74.68;100018.03;5030382;28;20045;-41
2022/11/21 01:03:46;;;;;;;24.42;9.52;;;;;;;0.07;74.32;100017.16;5028190;28;20441;-43
2022/11/21 01:06:14;;;;;;;24.80;9.85;;;;;;;-0.17;74.64;99994.69;5027357;28;20052;-44
2022/11/21 01:08:41;;;;;;;24.17;9.40;;;;;;;0.01;74.79;100025.59;5030061;28;20087;-41
2022/11/21 01:11:16;;;;;;;27.20;10.32;;;;;;;0.05;74.56;100023.97;5028928;28;20088;-41
2022/11/21 01:13:42;;;;;;;25.35;8.90;;;;;;;0.03;74.61;100030.75;5013494;28;20045;-43
2022/11/21 01:16:17;;;;;;;25.40;10.10;;;;;;;0.00;74.52;100031.56;5029903;28;20845;-43
2022/11/21 01:18:43;;;;;;;24.48;10.32;;;;;;;-0.01;74.48;100027.28;5044152;28;20045;-44
2022/11/21 01:21:19;;;;;;;24.10;9.43;;;;;;;-0.05;74.63;100016.16;5027785;28;20103;-41
2022/11/21 01:23:46;;;;;;;25.67;9.35;;;;;;;-0.11;74.59;99998.22;5008007;28;20468;-42
2022/11/21 01:26:17;;;;;;;20.52;9.77;;;;;;;-0.05;74.57;100010.19;5029512;28;20072;-42
2022/11/21 01:28:43;;;;;;;21.65;9.05;;;;;;;-0.05;74.73;100011.03;5012033;28;20060;-42
2022/11/21 01:31:12;;;;;;;25.73;10.32;;;;;;;-0.24;74.59;99980.97;5027672;28;20108;-41
2022/11/21 01:33:38;;;;;;;26.20;10.55;;;;;;;-0.06;74.57;100005.94;5031750;28;20052;-42
2022/11/21 01:36:24;;;;;;;24.77;10.60;;;;;;;-0.05;74.69;100002.50;5029125;28;20041;-43
2022/11/21 01:38:53;;;;;;;25.83;10.20;;;;;;;-0.05;74.73;99984.63;5007982;28;20055;-45
2022/11/21 01:41:25;;;;;;;27.92;10.48;;;;;;;-0.04;74.65;99988.91;5011588;28;20107;-42
2022/11/21 01:43:51;;;;;;;28.58;10.15;;;;;;;-0.24;74.66;99955.44;5026847;28;20131;-41
2022/11/21 01:46:19;;;;;;;26.85;10.43;;;;;;;0.02;75.04;99988.13;5026830;28;20045;-43
2022/11/21 01:48:50;;;;;;;25.63;10.07;;;;;;;0.02;74.58;99980.44;5027990;28;20057;-42
2022/11/21 01:51:33;;;;;;;24.02;10.52;;;;;;;-0.32;74.83;99921.28;5028765;28;20046;-43
2022/11/21 01:54:24;;;;;;;36.60;11.15;;;;;;;-0.04;74.72;99976.97;5009885;28;20037;-42
2022/11/21 01:56:57;;;;;;;25.42;10.45;;;;;;;-0.08;74.45;99971.81;5014762;28;20088;-42
2022/11/21 01:59:33;;;;;;;27.45;10.40;;;;;;;-0.11;74.98;99962.44;5028513;28;20077;-41
2022/11/21 02:02:01;;;;;;;25.10;10.45;;;;;;;-0.09;74.73;99955.63;5026924;28;20547;-42
2022/11/21 02:04:30;;;;;;;26.77;10.95;;;;;;;-0.09;75.03;99944.53;5027189;28;20037;-42
2022/11/21 02:06:57;;;;;;;26.23;10.30;;;;;;;-0.07;74.98;99948.84;5027209;28;20041;-42
2022/11/21 02:09:23;;;;;;;26.45;10.93;;;;;;;-0.12;74.65;99952.19;5026896;28;20077;-42
2022/11/21 02:11:53;;;;;;;30.17;10.27;;;;;;;-0.14;74.55;99949.59;5027364;28;20041;-42
2022/11/21 02:14:19;;;;;;;25.88;9.80;;;;;;;-0.14;74.88;99954.72;5028687;28;20095;-42
2022/11/21 02:16:45;;;;;;;25.13;9.60;;;;;;;-0.13;74.96;99958.97;5043567;28;20053;-41
2022/11/21 02:19:23;;;;;;;23.70;10.05;;;;;;;-0.18;74.83;99947.84;5043501;28;20041;-42
2022/11/21 02:21:58;;;;;;;24.67;10.02;;;;;;;-0.18;74.94;99952.09;5026482;28;20042;-42
2022/11/21 02:24:34;;;;;;;19.45;9.20;;;;;;;-0.37;74.87;99929.72;5010992;28;20066;-42
2022/11/21 02:27:00;;;;;;;28.30;9.15;;;;;;;-0.30;74.81;99940.03;5010549;28;20044;-42
2022/11/21 02:29:26;;;;;;;22.50;8.80;;;;;;;-0.66;74.86;99880.78;5027949;28;20042;-44
2022/11/21 02:31:52;;;;;;;24.50;9.63;;;;;;;-0.48;75.00;99917.66;5026819;28;20409;-42
2022/11/21 02:34:18;;;;;;;21.00;9.20;;;;;;;-0.57;74.97;99903.88;5027331;28;20041;-42
2022/11/21 02:36:47;;;;;;;21.60;9.65;;;;;;;-0.80;74.92;99882.31;5007476;28;20055;-42
2022/11/21 02:39:24;;;;;;;33.30;10.95;;;;;;;-0.73;75.28;99917.31;5018264;28;20103;-41
2022/11/21 02:41:56;;;;;;;24.70;9.77;;;;;;;-0.73;75.41;99927.50;5028266;28;20045;-42
2022/11/21 02:44:30;;;;;;;22.23;9.27;;;;;;;-0.74;75.49;99924.09;5026075;28;20057;-42
2022/11/21 02:46:56;;;;;;;25.02;10.30;;;;;;;-0.90;75.71;99897.50;5029342;28;20045;-43
2022/11/21 02:49:39;;;;;;;27.00;10.27;;;;;;;-0.65;75.77;99931.88;4993439;28;21981;-42
2022/11/21 02:52:05;;;;;;;26.52;10.35;;;;;;;-0.67;75.62;99920.78;5026166;28;20049;-42
2022/11/21 02:54:31;;;;;;;22.65;9.90;;;;;;;-0.75;75.51;99896.84;5027784;28;20111;-41
2022/11/21 02:56:57;;;;;;;23.02;10.43;;;;;;;-0.80;75.82;99889.97;5027294;28;20049;-42
2022/11/21 02:59:23;;;;;;;22.75;9.32;;;;;;;-0.57;75.62;99920.06;5030330;28;20045;-42
2022/11/21 03:01:49;;;;;;;25.13;9.70;;;;;;;-0.53;75.41;99921.00;5031044;28;20387;-42
2022/11/21 03:04:15;;;;;;;21.60;9.23;;;;;;;-0.52;75.52;99915.88;5021584;28;20037;-42
2022/11/21 03:06:41;;;;;;;25.63;10.68;;;;;;;-0.52;75.41;99912.47;5014500;28;20045;-41
2022/11/21 03:09:07;;;;;;;27.38;11.05;;;;;;;-0.50;75.58;99905.69;5030479;28;20130;-41
2022/11/21 03:11:32;;;;;;;30.80;10.88;;;;;;;-0.46;75.51;99903.19;5030783;28;20179;-42
2022/11/21 03:13:59;;;;;;;26.88;10.38;;;;;;;-0.47;75.44;99909.13;5032101;28;20120;-45
2022/11/21 03:16:24;;;;;;;23.98;10.15;;;;;;;-0.48;75.37;99919.34;5032111;28;20429;-41
2022/11/21 03:18:50;;;;;;;21.83;10.60;;;;;;;-0.62;75.57;99891.06;5031700;28;20045;-43
2022/11/21 03:21:16;;;;;;;25.95;10.63;;;;;;;-0.42;75.53;99924.56;5031253;28;20519;-42
2022/11/21 03:23:42;;;;;;;29.77;10.98;;;;;;;-0.42;75.33;99933.03;5030915;28;20413;-42
2022/11/21 03:26:08;;;;;;;27.00;10.88;;;;;;;-0.38;75.58;99933.97;5031298;28;20124;-43
2022/11/21 03:28:34;;;;;;;29.08;9.63;;;;;;;-0.53;75.28;99903.13;5044334;28;20034;-43
2022/11/21 03:31:00;;;;;;;21.95;9.68;;;;;;;-0.43;75.50;99926.25;5030037;28;20053;-43
2022/11/21 03:33:26;;;;;;;23.88;9.50;;;;;;;-0.59;75.08;99906.44;5030927;28;20037;-42
2022/11/21 03:35:51;;;;;;;23.25;8.30;;;;;;;-0.43;74.98;99941.56;5030815;28;20041;-43
2022/11/21 03:38:17;;;;;;;21.30;8.80;;;;;;;-0.46;75.17;99941.50;5031017;28;20420;-42
2022/11/21 03:40:43;;;;;;;27.63;9.52;;;;;;;-0.43;75.14;99946.66;5030523;28;20049;-42
2022/11/21 03:43:09;;;;;;;24.00;9.23;;;;;;;-0.44;74.96;99950.06;5043317;28;20033;-44
2022/11/21 03:45:35;;;;;;;26.95;8.85;;;;;;;-0.50;74.86;99944.00;5029715;28;20072;-43
2022/11/21 03:48:01;;;;;;;22.33;8.90;;;;;;;-0.47;74.86;99944.88;5045823;28;20045;-42
2022/11/21 03:50:27;;;;;;;22.48;8.73;;;;;;;-0.44;74.70;99949.19;5031022;28;20045;-42
2022/11/21 03:52:53;;;;;;;21.48;8.55;;;;;;;-0.45;75.20;99944.91;5030122;28;20041;-42
2022/11/21 03:55:18;;;;;;;22.77;9.65;;;;;;;-0.70;75.06;99899.47;5029359;28;20079;-41
2022/11/21 03:57:44;;;;;;;20.17;7.78;;;;;;;-0.49;74.75;99936.38;5028781;28;20052;-43
2022/11/21 04:00:10;;;;;;;19.02;7.97;;;;;;;-0.74;74.67;99910.47;5045297;28;20115;-42
2022/11/21 04:02:36;;;;;;;20.58;8.98;;;;;;;-0.61;74.57;99938.75;5028395;28;20037;-41
2022/11/21 04:05:02;;;;;;;19.08;7.60;;;;;;;-0.79;74.75;99915.50;5030415;28;20045;-43
2022/11/21 04:07:29;;;;;;;19.75;9.50;;;;;;;-0.76;74.59;99914.69;5023393;28;20489;-41
2022/11/21 04:09:54;;;;;;;23.10;8.65;;;;;;;-0.53;74.42;99936.31;5028819;28;20433;-42
2022/11/21 04:12:20;;;;;;;20.63;8.93;;;;;;;-0.53;74.25;99937.16;5030186;28;20041;-40
2022/11/21 04:14:46;;;;;;;22.33;7.88;;;;;;;-0.64;74.36;99905.53;5012630;28;20041;-42
2022/11/21 04:17:13;;;;;;;21.88;8.98;;;;;;;-0.51;74.20;99934.63;5029712;28;20093;-43
2022/11/21 04:19:38;;;;;;;23.25;9.07;;;;;;;-0.54;74.32;99926.94;5036376;28;20603;-42
2022/11/21 04:22:04;;;;;;;18.83;8.15;;;;;;;-0.57;74.20;99921.75;5029498;28;20045;-44
2022/11/21 04:24:30;;;;;;;24.50;8.88;;;;;;;-0.60;74.07;99921.72;5029546;28;20059;-41
2022/11/21 04:26:56;;;;;;;19.73;8.02;;;;;;;-0.61;74.08;99914.91;5028448;28;20082;-42
2022/11/21 04:29:21;;;;;;;18.45;7.22;;;;;;;-0.63;74.22;99911.50;5028887;28;20042;-42
2022/11/21 04:31:47;;;;;;;17.52;7.68;;;;;;;-0.62;74.32;99918.28;5034031;28;20616;-44
2022/11/21 04:34:13;;;;;;;19.92;7.55;;;;;;;-0.62;74.00;99916.59;5033914;28;20634;-44
2022/11/21 04:36:39;;;;;;;21.40;8.48;;;;;;;-0.61;74.07;99908.09;5027020;28;20127;-42
2022/11/21 04:39:05;;;;;;;21.17;8.30;;;;;;;-0.62;74.03;99900.41;5029816;28;20049;-42
2022/11/21 04:41:31;;;;;;;21.25;8.23;;;;;;;-0.81;74.48;99862.72;5028836;28;20049;-43
2022/11/21 04:43:57;;;;;;;20.77;8.88;;;;;;;-0.63;73.87;99897.00;5028562;28;20589;-42
2022/11/21 04:46:23;;;;;;;17.77;7.80;;;;;;;-0.80;74.24;99870.41;5012671;28;20037;-42
2022/11/21 04:48:49;;;;;;;18.23;7.47;;;;;;;-0.64;74.21;99895.31;5029910;28;20094;-42
2022/11/21 04:51:15;;;;;;;16.98;7.45;;;;;;;-0.64;73.92;99902.09;5027268;28;20517;-43
2022/11/21 04:53:41;;;;;;;18.55;8.02;;;;;;;-0.78;74.10;99878.06;5011114;28;20041;-42
2022/11/21 04:56:06;;;;;;;20.48;8.18;;;;;;;-0.84;74.17;99867.78;4995249;28;20037;-42
2022/11/21 04:58:33;;;;;;;16.77;7.05;;;;;;;-0.63;74.01;99908.94;5028990;28;20045;-43
2022/11/21 05:01:05;;;;;;;22.58;8.20;;;;;;;-0.65;74.36;99898.69;5028653;28;20128;-44
2022/11/21 05:03:31;;;;;;;24.98;8.43;;;;;;;-0.67;74.01;99896.94;5023637;28;20042;-43
2022/11/21 05:05:57;;;;;;;17.52;7.95;;;;;;;-0.82;74.14;99876.31;5024858;28;20393;-44
2022/11/21 05:08:23;;;;;;;22.08;8.70;;;;;;;-0.83;74.14;99869.47;5028140;28;20487;-43
2022/11/21 05:13:33;;;;;;;17.83;7.90;;;;;;;-0.69;74.35;99891.84;5028085;28;20038;-44
2022/11/21 05:15:59;;;;;;;18.08;7.53;;;;;;;-0.67;74.46;99887.59;5028952;28;20517;-42
2022/11/21 05:18:25;;;;;;;22.52;8.00;;;;;;;-0.70;74.41;99886.69;5044045;28;20072;-44
2022/11/21 05:20:51;;;;;;;18.63;7.97;;;;;;;-0.72;74.01;99896.03;5026773;28;20073;-43
2022/11/21 05:23:17;;;;;;;19.48;7.43;;;;;;;-0.95;74.22;99858.28;4994640;28;20522;-41
2022/11/21 05:25:43;;;;;;;16.48;7.63;;;;;;;-0.77;74.09;99892.53;5028738;28;20144;-42
2022/11/21 05:28:09;;;;;;;41.33;14.93;;;;;;;-0.78;74.43;99890.81;5028742;28;20049;-42
2022/11/21 05:30:36;;;;;;;18.40;7.45;;;;;;;-0.97;73.95;99861.63;5010454;28;20605;-43
2022/11/21 05:33:02;;;;;;;19.52;7.93;;;;;;;-0.82;74.01;99877.16;5028343;28;20048;-44
2022/11/21 05:35:28;;;;;;;19.77;7.28;;;;;;;-0.81;73.99;99880.59;5026666;28;20493;-44
2022/11/21 05:37:57;;;;;;;21.90;8.60;;;;;;;-0.76;73.70;99873.84;5026404;28;20420;-41
2022/11/21 05:40:24;;;;;;;17.50;7.93;;;;;;;-0.78;73.62;99872.94;5010577;28;20132;-44
2022/11/21 05:45:35;;;;;;;25.08;10.80;;;;;;;-0.76;73.55;99863.63;5027631;28;20072;-44
2022/11/21 05:48:01;;;;;;;26.67;9.43;;;;;;;-0.95;73.53;99835.31;4993374;28;20073;-43
2022/11/21 05:50:27;;;;;;;19.10;7.47;;;;;;;-0.80;73.40;99870.41;5009390;28;20041;-43
2022/11/21 05:52:53;;;;;;;120.03;17.73;;;;;;;-0.77;73.48;99877.22;5027430;28;20047;-43
2022/11/21 05:55:19;;;;;;;20.63;7.55;;;;;;;-1.02;73.33;99842.84;5010470;28;20076;-42
2022/11/21 05:57:45;;;;;;;23.27;7.57;;;;;;;-0.79;73.43;99884.03;5043957;28;20497;-43
2022/11/21 06:00:11;;;;;;;18.52;8.32;;;;;;;-0.74;73.20;99880.69;5027159;28;20037;-43
2022/11/21 06:05:22;;;;;;;16.55;7.28;;;;;;;-0.74;72.87;99890.06;5024868;28;20539;-47
2022/11/21 06:07:48;;;;;;;22.42;8.02;;;;;;;-0.80;73.30;99861.88;5024145;28;20072;-43
2022/11/21 06:10:14;;;;;;;15.75;6.80;;;;;;;-0.60;72.91;99885.97;5026456;28;20042;-42
2022/11/21 06:12:40;;;;;;;20.73;7.43;;;;;;;-0.68;72.88;99873.09;4978714;28;20056;-42
2022/11/21 06:15:06;;;;;;;18.80;7.10;;;;;;;-0.57;72.82;99883.47;5027261;28;20048;-44
2022/11/21 06:17:32;;;;;;;20.17;7.45;;;;;;;-0.52;72.95;99886.94;5027688;28;20041;-44
2022/11/21 06:19:58;;;;;;;18.15;8.05;;;;;;;-0.49;72.69;99887.84;5028037;28;20033;-44
2022/11/21 06:22:24;;;;;;;24.00;7.90;;;;;;;-0.69;72.73;99848.44;5006174;28;20045;-41
2022/11/21 06:24:50;;;;;;;20.40;8.25;;;;;;;-0.51;72.54;99881.00;5026790;28;20038;-52
2022/11/21 06:27:15;;;;;;;19.08;7.30;;;;;;;-0.48;72.91;99876.81;5019206;28;20121;-43
2022/11/21 06:29:41;;;;;;;18.02;7.63;;;;;;;-0.57;72.80;99855.38;5022812;28;20037;-44
2022/11/21 06:32:07;;;;;;;19.25;7.93;;;;;;;-0.43;72.51;99884.53;5038154;28;20057;-44
2022/11/21 06:34:33;;;;;;;30.20;10.32;;;;;;;-0.42;72.39;99883.69;5034551;28;20036;-42
2022/11/21 06:36:59;;;;;;;20.58;7.78;;;;;;;-0.34;72.31;99882.06;5024147;28;20049;-42
2022/11/21 06:39:25;;;;;;;22.30;7.95;;;;;;;-0.33;72.45;99876.13;5027969;28;20053;-42
2022/11/21 06:41:51;;;;;;;18.63;8.05;;;;;;;-0.27;72.22;99883.00;5013005;28;20129;-40
2022/11/21 06:44:17;;;;;;;25.48;8.52;;;;;;;-0.56;71.95;99836.66;5022005;28;20057;-44
2022/11/21 06:46:43;;;;;;;22.98;9.30;;;;;;;-0.26;72.38;99888.13;5025239;28;20052;-42
2022/11/21 06:49:10;;;;;;;19.38;8.10;;;;;;;-0.22;71.74;99887.34;5024544;28;20125;-42
2022/11/21 06:51:36;;;;;;;23.77;8.25;;;;;;;-0.21;71.61;99876.25;5023597;28;20048;-44
2022/11/21 06:54:02;;;;;;;18.48;7.25;;;;;;;-0.25;71.82;99891.53;5026537;28;20041;-45
2022/11/21 06:56:29;;;;;;;17.85;8.35;;;;;;;-0.26;71.47;99897.50;5010886;28;20045;-41
2022/11/21 06:58:55;;;;;;;23.48;8.73;;;;;;;-0.31;71.43;99896.56;5029483;28;20500;-42
2022/11/21 07:01:22;;;;;;;30.42;9.77;;;;;;;-0.30;71.20;99894.03;5028273;28;20052;-43
2022/11/21 07:03:48;;;;;;;20.15;8.15;;;;;;;-0.49;71.30;99854.66;5005261;28;20045;-43
2022/11/21 07:06:14;;;;;;;24.02;8.50;;;;;;;-0.42;71.32;99858.16;5014600;28;20053;-44
2022/11/21 07:08:40;;;;;;;19.15;8.27;;;;;;;-0.43;71.17;99867.50;5024665;28;20033;-41
2022/11/21 07:11:08;;;;;;;19.30;8.43;;;;;;;-0.50;71.33;99862.28;5043876;28;20046;-43
2022/11/21 07:13:34;;;;;;;19.65;7.53;;;;;;;-0.49;71.27;99871.66;5028372;28;20500;-47
2022/11/21 07:16:03;;;;;;;21.20;8.55;;;;;;;-0.36;71.30;99895.66;5026204;28;20048;-43
2022/11/21 07:18:29;;;;;;;19.52;7.63;;;;;;;-0.38;70.77;99893.09;5026695;28;20140;-44
2022/11/21 07:21:03;;;;;;;19.80;8.52;;;;;;;-0.40;71.07;99886.25;5026263;28;20037;-41
2022/11/21 07:23:31;;;;;;;22.08;8.52;;;;;;;-0.36;71.13;99882.88;5013958;28;20048;-41
2022/11/21 07:26:02;;;;;;;24.75;9.30;;;;;;;-0.30;70.75;99880.41;5009816;28;20128;-48
2022/11/21 07:28:29;;;;;;;26.75;9.05;;;;;;;-0.28;70.73;99866.81;5026544;28;20038;-44
2022/11/21 07:30:56;;;;;;;23.65;8.48;;;;;;;-0.38;70.72;99847.13;5023666;28;20544;-44
2022/11/21 07:33:22;;;;;;;24.08;8.85;;;;;;;-0.31;70.63;99859.09;5026985;28;20041;-45
2022/11/21 07:35:48;;;;;;;20.40;8.40;;;;;;;-0.48;70.41;99846.16;5024922;28;20041;-43
2022/11/21 07:38:14;;;;;;;23.30;8.93;;;;;;;-0.47;70.43;99859.75;5008331;28;20056;-41
2022/11/21 07:40:39;;;;;;;22.27;8.50;;;;;;;-0.31;70.24;99886.34;5028488;28;20512;-43
2022/11/21 07:43:05;;;;;;;19.88;8.63;;;;;;;-0.32;70.34;99877.00;5028398;28;20084;-42
2022/11/21 07:45:32;;;;;;;24.60;9.63;;;;;;;-0.50;70.09;99847.81;5026833;28;20516;-41
2022/11/21 07:48:03;;;;;;;23.35;9.25;;;;;;;-0.33;70.19;99863.38;5024989;28;20041;-43
2022/11/21 07:50:30;;;;;;;23.27;8.73;;;;;;;-0.18;69.85;99881.44;5027356;28;20041;-43
2022/11/21 07:53:00;;;;;;;21.38;8.02;;;;;;;-0.12;70.07;99878.09;5027340;28;20091;-42
2022/11/21 07:55:29;;;;;;;21.08;9.48;;;;;;;-0.24;69.84;99849.81;5026081;28;20044;-44
2022/11/21 07:57:58;;;;;;;19.80;8.18;;;;;;;-0.01;69.47;99867.16;5022283;28;20037;-43
2022/11/21 08:00:25;;;;;;;19.17;7.80;;;;;;;0.05;69.30;99876.59;5030264;28;20689;-45
2022/11/21 08:02:51;;;;;;;19.30;7.90;;;;;;;-0.08;69.54;99841.50;5022640;28;20045;-44
2022/11/21 08:05:17;;;;;;;22.42;9.13;;;;;;;0.18;69.07;99878.41;5024814;28;20576;-44
2022/11/21 08:07:43;;;;;;;19.58;7.40;;;;;;;0.26;69.05;99878.50;5030122;28;20070;-42
2022/11/21 08:10:09;;;;;;;19.10;7.35;;;;;;;0.16;68.71;99851.13;5026020;28;20041;-42
2022/11/21 08:12:35;;;;;;;16.35;7.25;;;;;;;0.20;68.30;99858.84;5029806;28;20045;-43
2022/11/21 08:15:03;;;;;;;13.73;7.10;;;;;;;0.16;67.98;99856.25;5024013;28;20124;-43
2022/11/21 08:17:29;;;;;;;16.80;7.65;;;;;;;0.31;67.91;99887.06;5027547;28;20043;-44
2022/11/21 08:19:57;;;;;;;13.45;6.68;;;;;;;0.31;67.46;99882.81;5029678;28;20602;-43
2022/11/21 08:22:23;;;;;;;14.48;5.82;;;;;;;0.33;67.72;99875.16;5023106;28;20049;-41
2022/11/21 08:24:49;;;;;;;13.40;6.25;;;;;;;0.31;67.46;99880.25;5024023;28;20037;-41
2022/11/21 08:27:19;;;;;;;12.48;5.70;;;;;;;0.36;67.59;99872.63;5026005;28;20043;-42
2022/11/21 08:29:45;;;;;;;11.80;5.45;;;;;;;0.42;67.03;99872.66;5005287;28;20042;-41
2022/11/21 08:32:11;;;;;;;11.00;5.47;;;;;;;0.47;66.85;99872.75;5023348;28;20531;-42
2022/11/21 08:34:37;;;;;;;13.50;6.15;;;;;;;0.44;66.93;99865.88;5003787;28;20042;-41
2022/11/21 08:37:03;;;;;;;13.77;6.05;;;;;;;0.35;66.46;99870.91;5021676;28;20410;-44
2022/11/21 08:39:29;;;;;;;13.32;5.50;;;;;;;0.29;66.45;99868.28;5019378;28;20034;-44
2022/11/21 08:42:02;;;;;;;16.95;6.57;;;;;;;0.27;66.20;99885.31;5009323;28;20045;-45
2022/11/21 08:44:29;;;;;;;12.52;6.50;;;;;;;0.18;66.42;99875.00;5022786;28;20079;-43
2022/11/21 08:46:55;;;;;;;13.40;5.75;;;;;;;0.20;65.95;99886.09;5024632;28;20044;-44
2022/11/21 08:49:22;;;;;;;9.13;5.10;;;;;;;0.07;66.22;99863.78;5023393;28;20043;-43
2022/11/21 08:51:48;;;;;;;11.75;5.35;;;;;;;0.15;66.07;99886.06;5021151;28;20151;-43
2022/11/21 08:54:16;;;;;;;15.00;6.45;;;;;;;0.22;66.04;99892.94;5024783;28;20099;-42
2022/11/21 08:56:42;;;;;;;14.82;6.22;;;;;;;0.34;66.04;99881.97;5007455;28;20053;-41
2022/11/21 08:59:08;;;;;;;13.63;6.47;;;;;;;0.37;66.10;99876.88;5010641;28;20033;-41
2022/11/21 09:01:34;;;;;;;16.65;6.43;;;;;;;0.40;65.88;99880.34;5023627;28;20524;-44
2022/11/21 09:04:01;;;;;;;16.15;6.55;;;;;;;0.46;65.96;99866.75;5026641;28;20068;-45
2022/11/21 09:06:26;;;;;;;15.05;6.25;;;;;;;0.52;65.83;99874.50;5026038;28;20412;-43
2022/11/21 09:08:52;;;;;;;18.15;6.78;;;;;;;0.43;65.55;99842.00;5026923;28;20056;-41
2022/11/21 09:11:18;;;;;;;14.25;7.28;;;;;;;0.68;65.60;99868.63;5010040;28;20036;-41
2022/11/21 09:18:01;;;;;;;12.55;6.93;;;;;;;0.74;65.70;99865.28;5011052;28;20476;-41
2022/11/21 09:19:15;;;;;;;13.75;6.22;;;;;;;0.61;65.39;99822.53;5024774;28;20091;-42
2022/11/21 09:21:41;;;;;;;14.90;7.18;;;;;;;0.90;64.96;99853.44;5024821;28;20064;-43
2022/11/21 09:24:06;;;;;;;12.98;6.32;;;;;;;0.94;65.00;99855.22;5024190;28;20037;-43
2022/11/21 09:26:32;;;;;;;15.07;6.72;;;;;;;0.97;65.03;99850.94;5010624;28;20095;-40
2022/11/21 09:28:58;;;;;;;16.85;7.10;;;;;;;1.10;64.97;99842.50;5028190;28;20571;-41
2022/11/21 09:31:24;;;;;;;15.90;7.65;;;;;;;1.18;64.89;99847.66;5044360;28;20071;-41
2022/11/21 09:33:50;;;;;;;15.70;7.28;;;;;;;1.21;64.69;99840.00;5026293;28;20068;-43
2022/11/21 09:36:16;;;;;;;14.40;7.18;;;;;;;1.17;64.34;99845.94;5023517;28;20050;-42
2022/11/21 09:38:42;;;;;;;29.77;10.80;;;;;;;0.97;64.66;99817.69;5025438;28;20033;-44
2022/11/21 09:41:52;;;;;;;22.90;9.70;;;;;;;1.19;64.74;99832.31;5023559;28;20044;-43
2022/11/21 09:44:24;;;;;;;18.85;7.82;;;;;;;1.19;64.24;99836.59;5004553;28;20045;-44
2022/11/21 09:46:54;;;;;;;16.65;7.35;;;;;;;1.13;64.33;99823.75;5044273;28;20595;-40
2022/11/21 09:49:21;;;;;;;15.23;7.03;;;;;;;1.16;64.27;99837.41;5015014;28;20053;-42
2022/11/21 09:51:48;;;;;;;15.38;6.60;;;;;;;1.07;64.27;99834.81;5008418;28;20048;-41
2022/11/21 09:54:18;;;;;;;14.13;7.10;;;;;;;1.04;64.39;99845.03;5016793;28;20050;-41
2022/11/21 09:56:45;;;;;;;13.23;6.85;;;;;;;0.76;64.09;99797.94;5009543;28;20041;-41
2022/11/21 09:59:20;;;;;;;17.80;7.38;;;;;;;0.94;64.42;99833.03;5026276;28;20045;-42
2022/11/21 10:01:47;;;;;;;13.43;7.00;;;;;;;0.97;64.27;99838.16;5011017;28;20041;-40
2022/11/21 10:04:13;;;;;;;17.35;7.50;;;;;;;0.98;64.35;99833.91;5026991;28;20041;-43
2022/11/21 10:06:53;;;;;;;19.20;7.47;;;;;;;1.01;64.72;99829.66;5006359;28;20034;-44
2022/11/21 10:09:28;;;;;;;24.38;10.88;;;;;;;1.03;64.79;99825.41;5042700;28;20049;-42
2022/11/21 10:15:31;;;;;;;15.75;6.70;;;;;;;0.83;64.49;99825.28;5025925;28;20045;-44
2022/11/21 10:18:00;;;;;;;18.80;9.25;;;;;;;0.76;64.50;99820.94;5030398;28;20148;-43
2022/11/21 10:20:44;;;;;;;15.98;7.40;;;;;;;0.72;64.70;99818.38;5031694;28;20045;-44
2022/11/21 10:23:32;;;;;;;16.70;7.13;;;;;;;0.63;64.54;99821.69;5023722;28;20111;-47
2022/11/21 10:26:18;;;;;;;16.80;7.68;;;;;;;0.50;64.65;99802.00;5023478;28;20044;-42
2022/11/21 10:29:13;;;;;;;14.20;6.53;;;;;;;0.65;64.67;99814.03;5035101;28;20104;-56
2022/11/21 10:31:43;;;;;;;15.20;6.88;;;;;;;0.65;64.59;99826.84;5033568;28;20061;-43
2022/11/21 10:34:15;;;;;;;12.93;6.63;;;;;;;0.60;64.95;99816.56;5012574;28;20049;-46
2022/11/21 10:36:43;;;;;;;11.48;6.15;;;;;;;0.55;64.80;99807.13;5024054;28;20042;-45
2022/11/21 10:39:38;;;;;;;14.43;5.97;;;;;;;0.23;64.80;99748.94;5019507;28;20041;-43
2022/11/21 10:42:34;;;;;;;12.18;6.07;;;;;;;0.47;64.82;99798.56;5038066;28;20137;-45
2022/11/21 10:45:16;;;;;;;16.58;6.93;;;;;;;0.32;64.80;99777.13;5023530;28;20393;-45
2022/11/21 10:47:48;;;;;;;13.70;6.57;;;;;;;0.45;64.64;99787.47;5028210;28;20045;-45
2022/11/21 10:50:36;;;;;;;13.15;6.10;;;;;;;0.40;64.96;99789.97;5025053;28;20045;-46
2022/11/21 10:56:18;;;;;;;15.15;6.40;;;;;;;0.36;64.90;99778.03;5032154;28;20049;-42
2022/11/21 10:58:53;;;;;;;15.35;6.85;;;;;;;0.36;65.35;99781.44;5004153;28;20033;-43
2022/11/21 11:01:30;;;;;;;15.20;7.30;;;;;;;0.37;65.41;99783.13;5008033;28;20678;-44
2022/11/21 11:04:08;;;;;;;13.85;6.45;;;;;;;0.29;65.44;99784.78;5011072;28;20528;-46
2022/11/21 11:06:38;;;;;;;14.90;6.65;;;;;;;0.27;65.46;99790.72;5027936;28;20037;-42
2022/11/21 11:09:04;;;;;;;15.30;6.20;;;;;;;0.06;65.17;99757.28;5012183;28;20402;-43
2022/11/21 11:11:31;;;;;;;13.55;6.38;;;;;;;0.00;65.38;99747.91;5029578;28;20535;-42
2022/11/21 11:14:02;;;;;;;14.57;7.45;;;;;;;0.14;65.46;99776.97;5030748;28;20139;-43
2022/11/21 11:16:29;;;;;;;13.07;6.50;;;;;;;-0.12;65.39;99735.84;5026748;28;20042;-44
2022/11/21 11:18:56;;;;;;;16.15;6.57;;;;;;;0.03;65.38;99759.84;5029550;28;20045;-44
2022/11/21 11:21:42;;;;;;;13.43;6.35;;;;;;;0.02;65.65;99758.09;4996513;28;20048;-46
2022/11/21 11:24:08;;;;;;;14.52;7.00;;;;;;;-0.01;65.39;99756.41;5031619;28;20087;-45
2022/11/21 11:26:50;;;;;;;13.57;6.93;;;;;;;0.03;65.78;99757.28;5029842;28;20457;-44
2022/11/21 11:29:24;;;;;;;14.18;6.45;;;;;;;0.05;65.76;99761.56;5028661;28;20049;-44
2022/11/21 11:31:54;;;;;;;15.85;6.90;;;;;;;0.08;65.70;99756.47;5032201;28;20041;-43
2022/11/21 11:34:20;;;;;;;14.00;6.10;;;;;;;-0.12;65.90;99722.22;5029532;28;20571;-43
2022/11/21 11:37:02;;;;;;;16.75;6.93;;;;;;;0.02;65.59;99743.63;5030659;28;20122;-45
2022/11/21 11:39:50;;;;;;;13.82;6.78;;;;;;;0.03;66.04;99750.47;5030086;28;20517;-42
2022/11/21 11:48:02;;;;;;;13.93;6.43;;;;;;;0.05;65.73;99753.03;5031083;28;20121;-43
2022/11/21 11:50:35;;;;;;;14.00;5.88;;;;;;;0.07;66.23;99733.44;5011573;28;20044;-47
2022/11/21 11:53:10;;;;;;;12.73;6.22;;;;;;;0.04;66.03;99748.78;5028562;28;20103;-43
2022/11/21 11:55:44;;;;;;;16.98;7.13;;;;;;;0.06;66.50;99745.38;5009025;28;20391;-43